createdAt,value
2018-07-25T00:00:39.132Z,99.99
2018-07-25T00:01:39.384Z,99.99
2018-07-25T00:02:38.973Z,99.98
2018-07-25T00:03:38.917Z,99.99
2018-07-25T00:04:38.856Z,99.99
2018-07-25T00:05:38.798Z,99.99
2018-07-25T00:06:39.708Z,99.88
2018-07-25T00:07:38.882Z,99.30
2018-07-25T00:08:38.622Z,98.82
2018-07-25T00:09:38.565Z,99.11
2018-07-25T00:10:38.502Z,99.49
2018-07-25T00:11:38.443Z,99.01
2018-07-25T00:12:38.386Z,99.40
2018-07-25T00:13:38.324Z,98.44
2018-07-25T00:14:38.266Z,98.44
2018-07-25T00:15:38.217Z,98.63
2018-07-25T00:16:38.159Z,98.44
2018-07-25T00:17:38.091Z,98.92
2018-07-25T00:18:38.030Z,98.34
2018-07-25T00:19:38.084Z,98.63
2018-07-25T00:20:37.913Z,97.86
2018-07-25T00:21:37.855Z,97.76
2018-07-25T00:22:37.794Z,98.24
2018-07-25T00:23:37.737Z,99.11
2018-07-25T00:24:37.681Z,98.72
2018-07-25T00:25:37.617Z,98.87
2018-07-25T00:26:37.557Z,98.87
2018-07-25T00:27:37.498Z,99.44
2018-07-25T00:28:37.441Z,99.44
2018-07-25T00:29:37.381Z,99.99
2018-07-25T00:30:37.321Z,99.99
2018-07-25T00:31:37.262Z,98.96
2018-07-25T00:32:37.202Z,99.64
2018-07-25T00:33:37.147Z,99.93
2018-07-25T00:34:37.084Z,99.99
2018-07-25T00:35:37.026Z,99.99
2018-07-25T00:36:36.967Z,99.99
2018-07-25T00:37:36.908Z,99.99
2018-07-25T00:38:36.848Z,99.99
2018-07-25T00:39:36.790Z,99.99
2018-07-25T00:40:36.736Z,99.99
2018-07-25T00:41:36.668Z,99.99
2018-07-25T00:42:36.614Z,99.99
2018-07-25T00:43:36.553Z,99.99
2018-07-25T00:44:36.493Z,99.99
2018-07-25T00:45:36.434Z,99.99
2018-07-25T00:46:36.375Z,99.99
2018-07-25T00:47:36.317Z,99.99
2018-07-25T00:48:36.257Z,99.99
2018-07-25T00:49:36.200Z,99.99
2018-07-25T00:50:36.139Z,99.99
2018-07-25T00:51:36.081Z,99.99
2018-07-25T00:52:36.020Z,99.99
2018-07-25T00:53:35.961Z,99.99
2018-07-25T00:54:35.901Z,99.99
2018-07-25T00:55:35.844Z,99.99
2018-07-25T00:56:35.786Z,99.99
2018-07-25T00:57:35.726Z,99.99
2018-07-25T00:58:35.665Z,99.99
2018-07-25T00:59:35.606Z,99.99
2018-07-25T01:00:35.549Z,99.99
2018-07-25T01:01:35.490Z,99.99
2018-07-25T01:02:35.428Z,99.99
2018-07-25T01:03:35.367Z,99.99
2018-07-25T01:04:35.309Z,99.99
2018-07-25T01:05:35.252Z,99.99
2018-07-25T01:06:35.192Z,99.99
2018-07-25T01:07:35.133Z,99.99
2018-07-25T01:08:35.072Z,99.99
2018-07-25T01:09:35.018Z,99.99
2018-07-25T01:10:34.955Z,99.99
2018-07-25T01:11:34.894Z,99.99
2018-07-25T01:12:34.837Z,99.99
2018-07-25T01:13:34.777Z,99.99
2018-07-25T01:14:34.716Z,99.99
2018-07-25T01:15:34.658Z,99.99
2018-07-25T01:16:34.599Z,99.99
2018-07-25T01:17:34.539Z,99.99
2018-07-25T01:18:34.480Z,99.99
2018-07-25T01:19:34.425Z,99.99
2018-07-25T01:20:34.362Z,99.99
2018-07-25T01:21:34.301Z,99.99
2018-07-25T01:22:34.240Z,99.99
2018-07-25T01:23:34.184Z,99.99
2018-07-25T01:24:34.124Z,99.99
2018-07-25T01:25:34.067Z,99.99
2018-07-25T01:26:34.006Z,99.99
2018-07-25T01:27:33.946Z,99.99
2018-07-25T01:28:33.886Z,99.99
2018-07-25T01:29:33.828Z,99.99
2018-07-25T01:30:33.768Z,99.99
2018-07-25T01:31:33.708Z,99.99
2018-07-25T01:32:33.652Z,99.99
2018-07-25T01:33:33.595Z,99.99
2018-07-25T01:34:33.531Z,99.99
2018-07-25T01:35:33.470Z,99.99
2018-07-25T01:36:33.412Z,99.99
2018-07-25T01:37:33.353Z,99.99
2018-07-25T01:38:33.293Z,99.99
2018-07-25T01:39:33.233Z,99.99
2018-07-25T01:40:33.175Z,99.99
2018-07-25T01:41:33.116Z,99.99
2018-07-25T01:42:33.064Z,99.99
2018-07-25T01:43:32.996Z,99.99
2018-07-25T01:44:32.939Z,99.99
2018-07-25T01:45:32.878Z,99.99
2018-07-25T01:46:32.816Z,99.99
2018-07-25T01:47:32.761Z,99.99
2018-07-25T01:48:32.698Z,99.99
2018-07-25T01:49:32.639Z,99.99
2018-07-25T01:50:32.583Z,99.99
2018-07-25T01:51:32.519Z,99.99
2018-07-25T01:52:32.460Z,99.99
2018-07-25T01:53:32.402Z,99.99
2018-07-25T01:54:32.343Z,99.99
2018-07-25T01:55:32.280Z,99.99
2018-07-25T01:56:32.223Z,99.99
2018-07-25T01:57:32.163Z,99.99
2018-07-25T01:58:32.104Z,99.99
2018-07-25T01:59:32.045Z,99.99
2018-07-25T02:00:31.985Z,99.99
2018-07-25T02:01:32.035Z,99.99
2018-07-25T02:02:31.864Z,99.99
2018-07-25T02:03:31.805Z,99.99
2018-07-25T02:04:31.750Z,99.99
2018-07-25T02:05:31.686Z,99.99
2018-07-25T02:06:31.642Z,99.99
2018-07-25T02:07:31.570Z,99.99
2018-07-25T02:08:31.508Z,99.99
2018-07-25T02:09:31.448Z,99.99
2018-07-25T02:10:31.388Z,99.99
2018-07-25T02:11:31.336Z,99.99
2018-07-25T02:12:31.270Z,99.99
2018-07-25T02:13:31.207Z,99.99
2018-07-25T02:14:31.150Z,99.99
2018-07-25T02:15:31.091Z,99.99
2018-07-25T02:16:31.031Z,99.99
2018-07-25T02:17:30.972Z,99.99
2018-07-25T02:18:30.985Z,99.99
2018-07-25T02:19:30.922Z,99.99
2018-07-25T02:20:30.796Z,99.99
2018-07-25T02:21:30.732Z,99.99
2018-07-25T02:22:30.671Z,99.99
2018-07-25T02:23:30.614Z,99.99
2018-07-25T02:24:30.552Z,99.99
2018-07-25T02:25:30.496Z,99.99
2018-07-25T02:26:30.435Z,99.99
2018-07-25T02:27:30.374Z,99.99
2018-07-25T02:28:30.316Z,99.99
2018-07-25T02:29:30.258Z,99.99
2018-07-25T02:30:30.197Z,99.99
2018-07-25T02:31:30.141Z,99.99
2018-07-25T02:32:30.084Z,99.99
2018-07-25T02:33:30.019Z,99.99
2018-07-25T02:34:29.955Z,99.99
2018-07-25T02:35:29.899Z,99.99
2018-07-25T02:36:29.844Z,99.99
2018-07-25T02:37:29.779Z,99.99
2018-07-25T02:38:29.719Z,99.99
2018-07-25T02:39:29.665Z,99.99
2018-07-25T02:40:29.635Z,99.99
2018-07-25T02:41:29.570Z,99.99
2018-07-25T02:42:29.496Z,99.99
2018-07-25T02:43:29.420Z,99.99
2018-07-25T02:44:29.364Z,99.99
2018-07-25T02:45:29.300Z,99.99
2018-07-25T02:46:29.240Z,99.99
2018-07-25T02:47:29.186Z,99.99
2018-07-25T02:48:29.121Z,99.99
2018-07-25T02:49:29.062Z,99.99
2018-07-25T02:50:29.001Z,99.99
2018-07-25T02:51:28.945Z,99.99
2018-07-25T02:52:28.882Z,99.99
2018-07-25T02:53:28.826Z,99.99
2018-07-25T02:54:28.761Z,99.99
2018-07-25T02:55:28.713Z,99.99
2018-07-25T02:56:28.642Z,99.99
2018-07-25T02:57:28.582Z,99.99
2018-07-25T02:58:28.521Z,99.99
2018-07-25T02:59:28.463Z,99.99
2018-07-25T03:00:28.403Z,99.99
2018-07-25T03:01:28.344Z,99.99
2018-07-25T03:02:28.282Z,99.99
2018-07-25T03:03:28.228Z,99.99
2018-07-25T03:04:28.165Z,99.99
2018-07-25T03:05:28.104Z,99.99
2018-07-25T03:06:28.088Z,99.99
2018-07-25T03:07:27.986Z,99.99
2018-07-25T03:08:27.923Z,99.99
2018-07-25T03:09:27.866Z,99.99
2018-07-25T03:10:27.804Z,99.99
2018-07-25T03:11:27.742Z,99.99
2018-07-25T03:12:27.688Z,99.99
2018-07-25T03:13:27.624Z,99.99
2018-07-25T03:14:27.573Z,99.99
2018-07-25T03:15:27.503Z,99.99
2018-07-25T03:16:27.446Z,99.99
2018-07-25T03:17:27.385Z,99.99
2018-07-25T03:18:27.325Z,99.99
2018-07-25T03:19:27.266Z,99.99
2018-07-25T03:20:27.210Z,99.99
2018-07-25T03:21:27.145Z,99.99
2018-07-25T03:22:27.087Z,99.99
2018-07-25T03:23:27.025Z,99.99
2018-07-25T03:24:26.966Z,99.99
2018-07-25T03:25:26.908Z,99.99
2018-07-25T03:26:26.846Z,99.99
2018-07-25T03:27:26.787Z,99.99
2018-07-25T03:28:26.728Z,99.99
2018-07-25T03:29:26.689Z,99.99
2018-07-25T03:30:26.612Z,99.99
2018-07-25T03:31:26.584Z,99.99
2018-07-25T03:32:26.490Z,99.99
2018-07-25T03:33:26.425Z,99.99
2018-07-25T03:34:26.379Z,99.99
2018-07-25T03:35:26.314Z,99.99
2018-07-25T03:36:26.251Z,99.99
2018-07-25T03:37:26.241Z,99.99
2018-07-25T03:38:26.126Z,99.99
2018-07-25T03:39:26.066Z,99.99
2018-07-25T03:40:26.007Z,99.99
2018-07-25T03:41:25.947Z,99.99
2018-07-25T03:42:25.885Z,99.99
2018-07-25T03:43:25.826Z,99.99
2018-07-25T03:44:25.771Z,99.99
2018-07-25T03:45:25.708Z,99.99
2018-07-25T03:46:25.646Z,99.99
2018-07-25T03:47:25.586Z,99.99
2018-07-25T03:48:25.526Z,99.99
2018-07-25T03:49:25.470Z,99.99
2018-07-25T03:50:25.407Z,99.99
2018-07-25T03:51:25.350Z,99.99
2018-07-25T03:52:25.286Z,99.99
2018-07-25T03:53:25.237Z,99.99
2018-07-25T03:54:25.170Z,99.99
2018-07-25T03:55:25.105Z,99.99
2018-07-25T03:56:25.046Z,99.99
2018-07-25T03:57:25.005Z,99.99
2018-07-25T03:58:25.017Z,99.99
2018-07-25T03:59:24.907Z,99.99
2018-07-25T04:00:24.816Z,99.99
2018-07-25T04:01:24.748Z,99.99
2018-07-25T04:02:24.686Z,99.99
2018-07-25T04:03:24.627Z,99.99
2018-07-25T04:04:24.568Z,99.99
2018-07-25T04:05:24.508Z,99.99
2018-07-25T04:06:24.445Z,99.99
2018-07-25T04:07:24.387Z,99.99
2018-07-25T04:08:24.346Z,99.99
2018-07-25T04:09:24.269Z,99.99
2018-07-25T04:10:24.207Z,99.99
2018-07-25T04:11:24.146Z,99.99
2018-07-25T04:12:24.088Z,99.99
2018-07-25T04:13:24.030Z,99.99
2018-07-25T04:14:23.968Z,99.99
2018-07-25T04:15:23.906Z,99.99
2018-07-25T04:16:23.848Z,99.99
2018-07-25T04:17:23.790Z,99.99
2018-07-25T04:18:23.727Z,99.99
2018-07-25T04:19:23.667Z,99.99
2018-07-25T04:20:23.610Z,99.99
2018-07-25T04:21:23.547Z,99.99
2018-07-25T04:22:23.489Z,99.99
2018-07-25T04:23:23.429Z,99.99
2018-07-25T04:24:23.370Z,99.99
2018-07-25T04:25:23.309Z,99.99
2018-07-25T04:26:23.248Z,99.99
2018-07-25T04:27:23.188Z,99.99
2018-07-25T04:28:23.134Z,99.99
2018-07-25T04:29:23.070Z,99.99
2018-07-25T04:30:23.009Z,99.99
2018-07-25T04:31:22.956Z,99.99
2018-07-25T04:32:22.890Z,99.99
2018-07-25T04:33:22.827Z,99.99
2018-07-25T04:34:22.769Z,99.99
2018-07-25T04:35:22.711Z,99.99
2018-07-25T04:36:22.649Z,99.99
2018-07-25T04:37:22.591Z,99.99
2018-07-25T04:38:22.530Z,99.99
2018-07-25T04:39:22.471Z,99.99
2018-07-25T04:40:22.411Z,99.99
2018-07-25T04:41:22.352Z,99.99
2018-07-25T04:42:22.290Z,99.99
2018-07-25T04:43:22.231Z,99.99
2018-07-25T04:44:22.171Z,99.99
2018-07-25T04:45:22.117Z,99.99
2018-07-25T04:46:22.155Z,99.99
2018-07-25T04:47:21.993Z,99.99
2018-07-25T04:48:21.931Z,99.99
2018-07-25T04:49:21.875Z,99.99
2018-07-25T04:50:21.810Z,99.99
2018-07-25T04:51:21.755Z,99.99
2018-07-25T04:52:21.694Z,99.99
2018-07-25T04:53:21.635Z,99.99
2018-07-25T04:54:21.574Z,99.99
2018-07-25T04:55:21.513Z,99.99
2018-07-25T04:56:21.454Z,99.99
2018-07-25T04:57:21.395Z,99.99
2018-07-25T04:58:21.333Z,99.99
2018-07-25T04:59:21.279Z,99.99
2018-07-25T05:00:21.216Z,99.99
2018-07-25T05:01:21.155Z,99.99
2018-07-25T05:02:21.094Z,99.99
2018-07-25T05:03:21.036Z,99.99
2018-07-25T05:04:20.978Z,99.99
2018-07-25T05:05:20.923Z,99.99
2018-07-25T05:06:20.858Z,99.99
2018-07-25T05:07:20.799Z,99.99
2018-07-25T05:08:20.738Z,99.99
2018-07-25T05:09:20.679Z,99.68
2018-07-25T05:10:20.619Z,99.98
2018-07-25T05:11:20.561Z,99.59
2018-07-25T05:12:20.505Z,99.59
2018-07-25T05:13:20.441Z,99.30
2018-07-25T05:14:20.381Z,99.78
2018-07-25T05:15:20.324Z,99.99
2018-07-25T05:16:20.263Z,99.99
2018-07-25T05:17:20.205Z,99.99
2018-07-25T05:18:20.141Z,98.91
2018-07-25T05:19:20.084Z,99.44
2018-07-25T05:20:20.030Z,98.63
2018-07-25T05:21:19.966Z,99.06
2018-07-25T05:22:19.904Z,99.06
2018-07-25T05:23:19.892Z,98.82
2018-07-25T05:24:19.787Z,98.58
2018-07-25T05:25:19.729Z,97.91
2018-07-25T05:26:19.665Z,97.81
2018-07-25T05:27:19.605Z,97.81
2018-07-25T05:28:19.550Z,97.71
2018-07-25T05:29:19.496Z,97.14
2018-07-25T05:30:19.545Z,97.42
2018-07-25T05:31:19.371Z,97.33
2018-07-25T05:32:19.309Z,97.04
2018-07-25T05:33:19.255Z,96.70
2018-07-25T05:34:19.192Z,96.51
2018-07-25T05:35:19.132Z,95.74
2018-07-25T05:36:19.074Z,95.74
2018-07-25T05:37:19.011Z,95.84
2018-07-25T05:38:18.954Z,96.03
2018-07-25T05:39:18.895Z,95.17
2018-07-25T05:40:18.836Z,94.49
2018-07-25T05:41:18.781Z,94.40
2018-07-25T05:42:18.716Z,94.30
2018-07-25T05:43:18.660Z,94.01
2018-07-25T05:44:18.601Z,93.77
2018-07-25T05:45:18.553Z,93.48
2018-07-25T05:46:18.481Z,93.53
2018-07-25T05:47:18.424Z,92.32
2018-07-25T05:48:18.362Z,92.90
2018-07-25T05:49:18.345Z,93.29
2018-07-25T05:50:18.244Z,92.42
2018-07-25T05:51:18.187Z,92.32
2018-07-25T05:52:18.127Z,92.32
2018-07-25T05:53:18.070Z,92.03
2018-07-25T05:54:18.008Z,92.22
2018-07-25T05:55:17.957Z,91.79
2018-07-25T05:56:17.892Z,91.99
2018-07-25T05:57:17.832Z,92.27
2018-07-25T05:58:17.773Z,91.21
2018-07-25T05:59:17.716Z,91.21
2018-07-25T06:00:17.655Z,90.44
2018-07-25T06:01:17.599Z,90.25
2018-07-25T06:02:17.537Z,89.77
2018-07-25T06:03:17.578Z,89.77
2018-07-25T06:04:17.445Z,89.72
2018-07-25T06:05:17.359Z,89.29
2018-07-25T06:06:17.305Z,89.53
2018-07-25T06:07:17.246Z,89.62
2018-07-25T06:08:17.199Z,90.39
2018-07-25T06:09:17.143Z,89.81
2018-07-25T06:10:17.069Z,89.81
2018-07-25T06:11:17.012Z,89.53
2018-07-25T06:12:16.953Z,89.72
2018-07-25T06:13:16.933Z,89.23
2018-07-25T06:14:16.904Z,89.14
2018-07-25T06:15:16.774Z,88.37
2018-07-25T06:16:16.716Z,88.75
2018-07-25T06:17:16.659Z,87.74
2018-07-25T06:18:16.600Z,87.83
2018-07-25T06:19:16.542Z,87.54
2018-07-25T06:20:16.483Z,87.35
2018-07-25T06:21:16.427Z,86.87
2018-07-25T06:22:16.364Z,87.74
2018-07-25T06:23:16.307Z,86.96
2018-07-25T06:24:16.253Z,86.39
2018-07-25T06:25:16.194Z,86.29
2018-07-25T06:26:16.136Z,86.68
2018-07-25T06:27:16.077Z,86.43
2018-07-25T06:28:16.016Z,86.24
2018-07-25T06:29:15.957Z,85.66
2018-07-25T06:30:15.900Z,85.46
2018-07-25T06:31:15.913Z,85.17
2018-07-25T06:32:15.784Z,85.27
2018-07-25T06:33:15.728Z,85.08
2018-07-25T06:34:15.721Z,85.08
2018-07-25T06:35:15.633Z,84.93
2018-07-25T06:36:15.551Z,84.06
2018-07-25T06:37:15.494Z,83.58
2018-07-25T06:38:15.435Z,83.48
2018-07-25T06:39:15.377Z,84.16
2018-07-25T06:40:15.320Z,84.64
2018-07-25T06:41:15.262Z,84.54
2018-07-25T06:42:15.200Z,83.96
2018-07-25T06:43:15.164Z,83.19
2018-07-25T06:44:15.090Z,82.90
2018-07-25T06:45:15.034Z,82.56
2018-07-25T06:46:14.971Z,82.36
2018-07-25T06:47:14.915Z,82.65
2018-07-25T06:48:14.857Z,82.07
2018-07-25T06:49:14.802Z,82.56
2018-07-25T06:50:14.745Z,82.75
2018-07-25T06:51:14.721Z,82.84
2018-07-25T06:52:14.625Z,82.07
2018-07-25T06:53:14.568Z,82.21
2018-07-25T06:54:14.511Z,82.02
2018-07-25T06:55:14.453Z,82.69
2018-07-25T06:56:14.395Z,82.02
2018-07-25T06:57:14.392Z,81.34
2018-07-25T06:58:14.280Z,81.34
2018-07-25T06:59:14.218Z,80.95
2018-07-25T07:00:14.167Z,80.57
2018-07-25T07:01:14.108Z,80.66
2018-07-25T07:02:14.051Z,80.95
2018-07-25T07:03:13.995Z,80.08
2018-07-25T07:04:13.940Z,79.93
2018-07-25T07:05:13.878Z,79.45
2018-07-25T07:06:13.818Z,80.32
2018-07-25T07:07:13.758Z,79.64
2018-07-25T07:08:13.707Z,79.16
2018-07-25T07:09:13.647Z,79.25
2018-07-25T07:10:13.591Z,79.45
2018-07-25T07:11:13.532Z,78.67
2018-07-25T07:12:13.491Z,78.81
2018-07-25T07:13:13.420Z,79.00
2018-07-25T07:14:13.361Z,78.91
2018-07-25T07:15:13.355Z,78.42
2018-07-25T07:16:13.246Z,78.56
2018-07-25T07:17:13.189Z,78.36
2018-07-25T07:18:13.133Z,77.88
2018-07-25T07:19:13.074Z,77.11
2018-07-25T07:20:13.018Z,77.50
2018-07-25T07:21:12.959Z,76.66
2018-07-25T07:22:12.903Z,76.66
2018-07-25T07:23:12.847Z,77.14
2018-07-25T07:24:12.790Z,76.46
2018-07-25T07:25:12.736Z,75.15
2018-07-25T07:26:12.676Z,75.73
2018-07-25T07:27:12.618Z,76.21
2018-07-25T07:28:12.561Z,76.02
2018-07-25T07:29:12.503Z,75.05
2018-07-25T07:30:12.448Z,74.86
2018-07-25T07:31:12.386Z,73.11
2018-07-25T07:32:12.334Z,72.83
2018-07-25T07:33:12.280Z,72.44
2018-07-25T07:34:12.220Z,72.24
2018-07-25T07:35:12.225Z,72.53
2018-07-25T07:36:12.121Z,72.24
2018-07-25T07:37:12.098Z,72.24
2018-07-25T07:38:11.991Z,72.34
2018-07-25T07:39:11.936Z,72.44
2018-07-25T07:40:11.880Z,71.56
2018-07-25T07:41:11.827Z,71.80
2018-07-25T07:42:11.766Z,72.44
2018-07-25T07:43:11.711Z,71.56
2018-07-25T07:44:11.759Z,72.05
2018-07-25T07:45:11.598Z,70.73
2018-07-25T07:46:11.539Z,70.54
2018-07-25T07:47:11.484Z,70.83
2018-07-25T07:48:11.429Z,71.50
2018-07-25T07:49:11.375Z,71.50
2018-07-25T07:50:11.319Z,72.09
2018-07-25T07:51:11.257Z,71.22
2018-07-25T07:52:11.204Z,72.09
2018-07-25T07:53:11.146Z,71.80
2018-07-25T07:54:11.091Z,72.02
2018-07-25T07:55:11.033Z,71.99
2018-07-25T07:56:10.976Z,71.60
2018-07-25T07:57:10.921Z,71.70
2018-07-25T07:58:10.865Z,71.22
2018-07-25T07:59:10.808Z,71.02
2018-07-25T08:00:10.753Z,71.02
2018-07-25T08:01:10.695Z,70.86
2018-07-25T08:02:10.638Z,70.86
2018-07-25T08:03:10.581Z,71.44
2018-07-25T08:04:10.528Z,72.12
2018-07-25T08:05:10.472Z,71.70
2018-07-25T08:06:10.414Z,71.83
2018-07-25T08:07:10.358Z,71.70
2018-07-25T08:08:10.303Z,71.70
2018-07-25T08:09:10.250Z,71.02
2018-07-25T08:10:10.187Z,71.44
2018-07-25T08:11:10.134Z,71.15
2018-07-25T08:12:10.079Z,71.44
2018-07-25T08:13:10.023Z,71.25
2018-07-25T08:14:09.967Z,71.44
2018-07-25T08:15:09.909Z,69.79
2018-07-25T08:16:09.852Z,69.89
2018-07-25T08:17:09.799Z,68.47
2018-07-25T08:18:09.743Z,68.76
2018-07-25T08:19:09.686Z,68.66
2018-07-25T08:20:09.629Z,69.15
2018-07-25T08:21:09.629Z,69.34
2018-07-25T08:22:09.517Z,70.12
2018-07-25T08:23:09.466Z,69.67
2018-07-25T08:24:09.405Z,69.28
2018-07-25T08:25:09.350Z,68.79
2018-07-25T08:26:09.295Z,68.99
2018-07-25T08:27:09.236Z,68.12
2018-07-25T08:28:09.182Z,68.70
2018-07-25T08:29:09.126Z,68.89
2018-07-25T08:30:09.074Z,67.73
2018-07-25T08:31:09.037Z,66.89
2018-07-25T08:32:08.960Z,67.96
2018-07-25T08:33:08.903Z,67.73
2018-07-25T08:34:08.852Z,67.34
2018-07-25T08:35:08.797Z,67.92
2018-07-25T08:36:08.736Z,67.83
2018-07-25T08:37:08.676Z,68.12
2018-07-25T08:38:08.622Z,68.44
2018-07-25T08:39:08.568Z,66.02
2018-07-25T08:40:08.516Z,66.60
2018-07-25T08:41:08.476Z,66.21
2018-07-25T08:42:08.401Z,65.24
2018-07-25T08:43:08.344Z,65.53
2018-07-25T08:44:08.296Z,65.53
2018-07-25T08:45:08.234Z,65.14
2018-07-25T08:46:08.178Z,64.65
2018-07-25T08:47:08.124Z,64.85
2018-07-25T08:48:08.068Z,64.88
2018-07-25T08:49:08.012Z,65.37
2018-07-25T08:50:07.955Z,64.98
2018-07-25T08:51:07.902Z,64.11
2018-07-25T08:52:07.845Z,64.72
2018-07-25T08:53:07.789Z,63.75
2018-07-25T08:54:07.732Z,63.26
2018-07-25T08:55:07.677Z,63.84
2018-07-25T08:56:07.621Z,63.49
2018-07-25T08:57:07.567Z,63.17
2018-07-25T08:58:07.511Z,63.00
2018-07-25T08:59:07.455Z,62.48
2018-07-25T09:00:07.400Z,62.61
2018-07-25T09:01:07.360Z,62.13
2018-07-25T09:02:07.289Z,60.77
2018-07-25T09:03:07.234Z,61.05
2018-07-25T09:04:07.184Z,60.96
2018-07-25T09:05:07.123Z,59.41
2018-07-25T09:06:07.071Z,60.08
2018-07-25T09:07:07.011Z,60.02
2018-07-25T09:08:06.956Z,58.72
2018-07-25T09:09:06.904Z,58.56
2018-07-25T09:10:06.848Z,59.05
2018-07-25T09:11:06.791Z,58.56
2018-07-25T09:12:06.737Z,58.65
2018-07-25T09:13:06.701Z,58.07
2018-07-25T09:14:06.627Z,58.46
2018-07-25T09:15:06.616Z,58.65
2018-07-25T09:16:06.516Z,58.56
2018-07-25T09:17:06.463Z,57.29
2018-07-25T09:18:06.410Z,57.22
2018-07-25T09:19:06.377Z,56.84
2018-07-25T09:20:06.298Z,56.93
2018-07-25T09:21:06.243Z,54.82
2018-07-25T09:22:06.186Z,55.11
2018-07-25T09:23:06.131Z,54.72
2018-07-25T09:24:06.075Z,54.03
2018-07-25T09:25:06.049Z,53.65
2018-07-25T09:26:05.965Z,53.75
2018-07-25T09:27:05.911Z,53.26
2018-07-25T09:28:05.856Z,52.70
2018-07-25T09:29:05.804Z,52.80
2018-07-25T09:30:05.747Z,52.99
2018-07-25T09:31:05.692Z,51.14
2018-07-25T09:32:05.639Z,50.78
2018-07-25T09:33:05.583Z,51.26
2018-07-25T09:34:05.562Z,49.93
2018-07-25T09:35:05.473Z,50.60
2018-07-25T09:36:05.421Z,50.63
2018-07-25T09:37:05.365Z,48.39
2018-07-25T09:38:05.315Z,48.12
2018-07-25T09:39:05.254Z,48.24
2018-07-25T09:40:05.203Z,46.01
2018-07-25T09:41:05.218Z,45.08
2018-07-25T09:42:05.102Z,42.48
2018-07-25T09:43:05.039Z,42.13
2018-07-25T09:44:04.986Z,39.90
2018-07-25T09:45:04.933Z,38.76
2018-07-25T09:46:04.876Z,38.56
2018-07-25T09:47:04.963Z,38.48
2018-07-25T09:48:04.775Z,39.25
2018-07-25T09:49:04.720Z,39.07
2018-07-25T09:50:04.669Z,38.70
2018-07-25T09:51:04.617Z,38.50
2018-07-25T09:52:04.564Z,37.24
2018-07-25T09:53:04.556Z,37.36
2018-07-25T09:54:04.467Z,37.65
2018-07-25T09:55:04.411Z,36.30
2018-07-25T09:56:04.361Z,36.59
2018-07-25T09:57:04.314Z,35.90
2018-07-25T09:58:04.261Z,36.20
2018-07-25T09:59:04.246Z,36.67
2018-07-25T10:00:04.166Z,35.02
2018-07-25T10:01:04.136Z,36.00
2018-07-25T10:02:04.066Z,35.41
2018-07-25T10:03:04.017Z,35.69
2018-07-25T10:04:03.969Z,35.69
2018-07-25T10:05:03.925Z,36.57
2018-07-25T10:06:03.873Z,36.47
2018-07-25T10:07:03.880Z,37.13
2018-07-25T10:08:03.778Z,37.72
2018-07-25T10:09:03.730Z,37.84
2018-07-25T10:10:03.683Z,37.74
2018-07-25T10:11:03.633Z,36.65
2018-07-25T10:12:03.590Z,35.88
2018-07-25T10:13:03.543Z,36.97
2018-07-25T10:14:03.492Z,36.47
2018-07-25T10:15:03.534Z,37.55
2018-07-25T10:16:03.402Z,36.67
2018-07-25T10:17:03.377Z,36.47
2018-07-25T10:18:03.307Z,35.99
2018-07-25T10:19:03.258Z,36.38
2018-07-25T10:20:03.231Z,35.59
2018-07-25T10:21:03.165Z,35.97
2018-07-25T10:22:03.124Z,35.38
2018-07-25T10:23:03.096Z,35.18
2018-07-25T10:24:03.028Z,35.47
2018-07-25T10:25:02.984Z,35.18
2018-07-25T10:26:02.935Z,35.57
2018-07-25T10:27:02.901Z,35.78
2018-07-25T10:28:02.886Z,35.00
2018-07-25T10:29:02.818Z,35.38
2018-07-25T10:30:02.779Z,33.94
2018-07-25T10:31:02.701Z,33.15
2018-07-25T10:32:02.654Z,34.51
2018-07-25T10:33:02.670Z,34.11
2018-07-25T10:34:02.561Z,34.41
2018-07-25T10:35:02.515Z,34.22
2018-07-25T10:36:02.469Z,34.53
2018-07-25T10:37:02.422Z,33.26
2018-07-25T10:38:02.376Z,33.25
2018-07-25T10:39:02.379Z,34.53
2018-07-25T10:40:02.281Z,34.63
2018-07-25T10:41:02.241Z,34.53
2018-07-25T10:42:02.204Z,33.54
2018-07-25T10:43:02.144Z,35.11
2018-07-25T10:44:02.097Z,34.44
2018-07-25T10:45:02.052Z,35.99
2018-07-25T10:46:02.004Z,35.80
2018-07-25T10:47:01.957Z,34.43
2018-07-25T10:48:01.911Z,34.05
2018-07-25T10:49:01.866Z,32.87
2018-07-25T10:50:01.818Z,33.46
2018-07-25T10:51:01.773Z,33.95
2018-07-25T10:52:01.725Z,34.27
2018-07-25T10:53:01.683Z,33.97
2018-07-25T10:54:01.632Z,34.53
2018-07-25T10:55:01.584Z,34.90
2018-07-25T10:56:01.659Z,35.67
2018-07-25T10:57:01.492Z,36.28
2018-07-25T10:58:01.448Z,35.38
2018-07-25T10:59:01.763Z,36.55
2018-07-25T11:00:01.353Z,36.65
2018-07-25T11:01:01.303Z,35.69
2018-07-25T11:02:01.271Z,35.49
2018-07-25T11:03:01.213Z,36.63
2018-07-25T11:04:01.255Z,37.80
2018-07-25T11:05:01.120Z,35.44
2018-07-25T11:06:01.089Z,35.54
2018-07-25T11:07:01.025Z,36.21
2018-07-25T11:08:00.979Z,34.16
2018-07-25T11:09:00.930Z,34.05
2018-07-25T11:10:00.884Z,34.15
2018-07-25T11:11:00.841Z,32.78
2018-07-25T11:12:00.786Z,33.17
2018-07-25T11:13:00.745Z,33.18
2018-07-25T11:14:00.693Z,34.06
2018-07-25T11:15:00.644Z,34.06
2018-07-25T11:16:00.601Z,34.26
2018-07-25T11:17:00.551Z,34.16
2018-07-25T11:18:00.497Z,34.46
2018-07-25T11:19:00.450Z,34.54
2018-07-25T11:20:00.403Z,35.52
2018-07-25T11:21:00.358Z,35.60
2018-07-25T11:22:00.308Z,37.33
2018-07-25T11:23:00.274Z,36.72
2018-07-25T11:24:00.210Z,37.19
2018-07-25T11:25:00.161Z,38.18
2018-07-25T11:26:00.114Z,39.14
2018-07-25T11:27:00.062Z,39.53
2018-07-25T11:28:00.015Z,40.00
2018-07-25T11:28:59.962Z,40.58
2018-07-25T11:29:59.911Z,40.00
2018-07-25T11:30:59.862Z,40.39
2018-07-25T11:31:59.812Z,40.27
2018-07-25T11:32:59.763Z,41.74
2018-07-25T11:33:59.710Z,40.95
2018-07-25T11:34:59.667Z,41.64
2018-07-25T11:35:59.613Z,41.15
2018-07-25T11:36:59.557Z,41.15
2018-07-25T11:37:59.504Z,41.72
2018-07-25T11:38:59.454Z,41.03
2018-07-25T11:39:59.404Z,41.03
2018-07-25T11:40:59.350Z,40.84
2018-07-25T11:41:59.299Z,41.33
2018-07-25T11:42:59.247Z,40.64
2018-07-25T11:43:59.195Z,41.33
2018-07-25T11:44:59.140Z,41.33
2018-07-25T11:45:59.091Z,41.91
2018-07-25T11:46:59.039Z,41.91
2018-07-25T11:47:58.984Z,42.89
2018-07-25T11:48:58.933Z,43.18
2018-07-25T11:49:58.940Z,43.67
2018-07-25T11:50:58.828Z,43.57
2018-07-25T11:51:58.775Z,44.53
2018-07-25T11:52:58.722Z,44.63
2018-07-25T11:53:58.668Z,45.51
2018-07-25T11:54:58.620Z,45.61
2018-07-25T11:55:58.607Z,45.31
2018-07-25T11:56:58.509Z,44.70
2018-07-25T11:57:58.457Z,44.80
2018-07-25T11:58:58.408Z,45.87
2018-07-25T11:59:58.351Z,46.36
2018-07-25T12:00:58.328Z,46.66
2018-07-25T12:01:58.246Z,47.41
2018-07-25T12:02:58.193Z,47.61
2018-07-25T12:03:58.142Z,47.51
2018-07-25T12:04:58.086Z,46.24
2018-07-25T12:05:58.032Z,46.24
2018-07-25T12:06:57.980Z,47.19
2018-07-25T12:07:57.926Z,46.02
2018-07-25T12:08:57.878Z,45.75
2018-07-25T12:09:57.818Z,44.97
2018-07-25T12:10:57.766Z,46.34
2018-07-25T12:11:57.711Z,46.04
2018-07-25T12:12:57.663Z,44.78
2018-07-25T12:13:57.605Z,43.41
2018-07-25T12:14:57.551Z,43.80
2018-07-25T12:15:57.497Z,45.26
2018-07-25T12:16:57.444Z,44.51
2018-07-25T12:17:57.391Z,42.85
2018-07-25T12:18:57.338Z,43.33
2018-07-25T12:19:57.282Z,43.33
2018-07-25T12:20:57.229Z,43.24
2018-07-25T12:21:57.176Z,43.12
2018-07-25T12:22:57.124Z,43.80
2018-07-25T12:23:57.070Z,44.09
2018-07-25T12:24:57.024Z,44.48
2018-07-25T12:25:56.961Z,43.80
2018-07-25T12:26:57.003Z,43.32
2018-07-25T12:27:56.854Z,43.80
2018-07-25T12:28:56.800Z,43.02
2018-07-25T12:29:56.746Z,43.22
2018-07-25T12:30:56.692Z,43.22
2018-07-25T12:31:56.638Z,41.85
2018-07-25T12:32:56.586Z,42.63
2018-07-25T12:33:56.530Z,41.95
2018-07-25T12:34:56.475Z,40.39
2018-07-25T12:35:56.423Z,39.70
2018-07-25T12:36:56.371Z,39.41
2018-07-25T12:37:56.314Z,39.51
2018-07-25T12:38:56.260Z,40.78
2018-07-25T12:39:56.207Z,39.61
2018-07-25T12:40:56.153Z,39.33
2018-07-25T12:41:56.099Z,39.14
2018-07-25T12:42:56.143Z,39.62
2018-07-25T12:43:55.991Z,39.62
2018-07-25T12:44:55.936Z,39.53
2018-07-25T12:45:55.887Z,40.11
2018-07-25T12:46:55.829Z,40.50
2018-07-25T12:47:55.776Z,40.89
2018-07-25T12:48:55.720Z,41.67
2018-07-25T12:49:55.669Z,40.50
2018-07-25T12:50:55.648Z,40.89
2018-07-25T12:51:55.559Z,39.43